createdAt,value
2023-02-19T00:00:09.501Z,3.90
2023-02-19T00:02:35.959Z,3.90
2023-02-19T00:05:02.446Z,3.90
2023-02-19T00:07:28.877Z,3.90
2023-02-19T00:09:55.229Z,3.89
2023-02-19T00:12:23.898Z,3.91
2023-02-19T00:14:50.225Z,3.91
2023-02-19T00:17:16.571Z,3.91
2023-02-19T00:19:42.928Z,3.88
2023-02-19T00:22:09.730Z,3.88
2023-02-19T00:24:38.204Z,3.91
2023-02-19T00:27:07.125Z,3.84
2023-02-19T00:29:33.823Z,3.75
2023-02-19T00:32:00.265Z,3.73
2023-02-19T00:34:26.783Z,3.71
2023-02-19T00:37:00.758Z,3.67
2023-02-19T00:39:27.131Z,3.62
2023-02-19T00:41:53.877Z,3.63
2023-02-19T00:44:20.281Z,3.67
2023-02-19T00:46:47.328Z,3.66
2023-02-19T00:49:13.689Z,3.57
2023-02-19T00:51:40.179Z,3.57
2023-02-19T00:54:06.627Z,3.61
2023-02-19T00:56:33.009Z,3.71
2023-02-19T00:59:01.508Z,3.58
2023-02-19T01:01:28.126Z,3.48
2023-02-19T01:03:55.551Z,3.44
2023-02-19T01:06:22.161Z,3.44
2023-02-19T01:08:48.729Z,3.41
2023-02-19T01:11:15.397Z,3.40
2023-02-19T01:13:41.759Z,3.39
2023-02-19T01:16:08.144Z,3.35
2023-02-19T01:18:34.736Z,3.28
2023-02-19T01:21:01.124Z,3.21
2023-02-19T01:23:29.662Z,3.20
2023-02-19T01:25:56.299Z,3.25
2023-02-19T01:28:22.936Z,3.28
2023-02-19T01:30:49.728Z,3.31
2023-02-19T01:33:16.144Z,3.26
2023-02-19T01:35:42.722Z,3.23
2023-02-19T01:38:09.331Z,3.23
2023-02-19T01:40:35.803Z,3.25
2023-02-19T01:43:02.129Z,3.32
2023-02-19T01:45:29.695Z,3.28
2023-02-19T01:47:56.150Z,3.24
2023-02-19T01:50:22.518Z,3.27
2023-02-19T01:52:48.906Z,3.26
2023-02-19T01:55:17.714Z,3.26
2023-02-19T01:57:44.410Z,3.20
2023-02-19T02:00:10.798Z,3.08
2023-02-19T02:02:37.629Z,2.99
2023-02-19T02:05:04.021Z,2.94
2023-02-19T02:07:30.357Z,2.94
2023-02-19T02:09:56.690Z,2.94
2023-02-19T02:12:23.030Z,2.87
2023-02-19T02:14:49.575Z,2.87
2023-02-19T02:17:15.975Z,2.91
2023-02-19T02:19:42.573Z,2.90
2023-02-19T02:22:09.023Z,2.96
2023-02-19T02:24:35.359Z,3.00
2023-02-19T02:27:01.694Z,2.98
2023-02-19T02:29:28.074Z,3.00
2023-02-19T02:31:55.555Z,3.05
2023-02-19T02:34:21.993Z,2.98
2023-02-19T02:36:48.346Z,2.98
2023-02-19T02:39:14.683Z,3.03
2023-02-19T02:41:41.246Z,3.06
2023-02-19T02:44:09.895Z,3.07
2023-02-19T02:46:36.371Z,3.10
2023-02-19T02:49:02.720Z,3.04
2023-02-19T02:51:29.477Z,2.96
2023-02-19T02:53:56.064Z,3.06
2023-02-19T02:56:22.444Z,3.13
2023-02-19T02:58:48.777Z,3.23
2023-02-19T03:01:15.189Z,3.34
2023-02-19T03:03:41.798Z,3.40
2023-02-19T03:06:08.212Z,3.49
2023-02-19T03:08:34.602Z,3.53
2023-02-19T03:11:00.940Z,3.56
2023-02-19T03:13:28.393Z,3.54
2023-02-19T03:15:55.062Z,3.54
2023-02-19T03:18:21.476Z,3.50
2023-02-19T03:20:47.877Z,3.47
2023-02-19T03:23:14.214Z,3.46
2023-02-19T03:25:40.607Z,3.49
2023-02-19T03:28:06.980Z,3.53
2023-02-19T03:30:33.392Z,3.54
2023-02-19T03:32:59.802Z,3.49
2023-02-19T03:35:26.205Z,3.46
2023-02-19T03:37:53.106Z,3.45
2023-02-19T03:40:19.478Z,3.41
2023-02-19T03:42:45.850Z,3.28
2023-02-19T03:45:12.228Z,3.24
2023-02-19T03:47:38.574Z,3.24
2023-02-19T03:50:04.901Z,3.23
2023-02-19T03:52:31.386Z,3.19
2023-02-19T03:54:57.789Z,3.17
2023-02-19T03:57:24.148Z,3.19
2023-02-19T03:59:50.539Z,3.25
2023-02-19T04:02:16.954Z,3.23
2023-02-19T04:04:45.733Z,2.94
2023-02-19T04:07:12.146Z,2.99
2023-02-19T04:09:38.482Z,3.05
2023-02-19T04:12:05.258Z,3.08
2023-02-19T04:14:34.041Z,3.15
2023-02-19T04:17:00.485Z,3.21
2023-02-19T04:19:26.870Z,3.29
2023-02-19T04:21:53.244Z,3.34
2023-02-19T04:24:19.684Z,3.38
2023-02-19T04:26:46.060Z,3.42
2023-02-19T04:29:12.402Z,3.53
2023-02-19T04:31:38.845Z,3.62
2023-02-19T04:34:05.249Z,3.74
2023-02-19T04:36:31.663Z,3.72
2023-02-19T04:39:00.346Z,3.64
2023-02-19T04:41:26.984Z,3.65
2023-02-19T04:43:53.427Z,3.58
2023-02-19T04:46:22.032Z,3.57
2023-02-19T04:48:48.412Z,3.55
2023-02-19T04:51:14.747Z,3.56
2023-02-19T04:53:41.162Z,3.60
2023-02-19T04:56:07.495Z,3.60
2023-02-19T04:58:33.902Z,3.60
2023-02-19T05:01:00.287Z,3.67
2023-02-19T05:03:26.725Z,3.73
2023-02-19T05:05:53.071Z,3.71
2023-02-19T05:08:19.475Z,3.77
2023-02-19T05:10:45.817Z,3.86
2023-02-19T05:13:12.183Z,3.90
2023-02-19T05:15:38.629Z,4.03
2023-02-19T05:18:05.025Z,4.15
2023-02-19T05:20:31.390Z,4.23
2023-02-19T05:22:58.274Z,4.30
2023-02-19T05:25:24.684Z,4.36
2023-02-19T05:27:51.019Z,4.43
2023-02-19T05:30:18.439Z,4.42
2023-02-19T05:32:44.810Z,4.46
2023-02-19T05:35:11.170Z,4.32
2023-02-19T05:37:37.574Z,3.87
2023-02-19T05:40:04.141Z,3.59
2023-02-19T05:42:31.506Z,3.64
2023-02-19T05:44:57.834Z,3.66
2023-02-19T05:47:26.531Z,3.71
2023-02-19T05:49:53.835Z,3.79
2023-02-19T05:52:20.207Z,3.90
2023-02-19T05:54:46.627Z,3.83
2023-02-19T05:57:12.967Z,4.00
2023-02-19T05:59:39.335Z,4.15
2023-02-19T06:02:05.678Z,4.29
2023-02-19T06:04:32.167Z,4.43
2023-02-19T06:06:59.818Z,4.57
2023-02-19T06:09:26.198Z,4.69
2023-02-19T06:11:52.582Z,4.79
2023-02-19T06:14:18.934Z,4.92
2023-02-19T06:16:45.468Z,5.00
2023-02-19T06:19:11.825Z,5.05
2023-02-19T06:21:38.173Z,5.11
2023-02-19T06:24:04.508Z,5.19
2023-02-19T06:26:30.841Z,5.25
2023-02-19T06:28:57.162Z,5.33
2023-02-19T06:31:23.881Z,5.41
2023-02-19T06:33:50.345Z,5.48
2023-02-19T06:36:19.063Z,5.63
2023-02-19T06:38:45.449Z,5.72
2023-02-19T06:41:12.225Z,5.72
2023-02-19T06:43:38.747Z,5.75
2023-02-19T06:46:05.437Z,5.72
2023-02-19T06:48:31.790Z,5.77
2023-02-19T06:50:58.338Z,5.77
2023-02-19T06:53:24.701Z,5.81
2023-02-19T06:55:51.027Z,5.84
2023-02-19T06:58:17.356Z,5.92
2023-02-19T07:00:43.756Z,5.94
2023-02-19T07:03:10.088Z,5.99
2023-02-19T07:05:36.665Z,5.97
2023-02-19T07:08:03.068Z,6.01
2023-02-19T07:10:29.519Z,6.12
2023-02-19T07:12:55.967Z,6.14
2023-02-19T07:15:22.380Z,6.19
2023-02-19T07:17:48.766Z,6.25
2023-02-19T07:20:15.146Z,6.38
2023-02-19T07:22:41.934Z,6.46
2023-02-19T07:25:08.281Z,6.69
2023-02-19T07:27:34.678Z,6.82
2023-02-19T07:30:01.125Z,6.95
2023-02-19T07:32:27.874Z,7.08
2023-02-19T07:34:54.239Z,7.40
2023-02-19T07:37:20.581Z,7.61
2023-02-19T07:39:46.965Z,7.83
2023-02-19T07:42:13.345Z,8.00
2023-02-19T07:44:39.923Z,8.09
2023-02-19T07:47:06.479Z,8.15
2023-02-19T07:49:32.862Z,8.16
2023-02-19T07:51:59.343Z,8.17
2023-02-19T07:54:32.766Z,8.17
2023-02-19T07:56:59.112Z,8.11
2023-02-19T07:59:25.623Z,8.24
2023-02-19T08:01:51.981Z,8.39
2023-02-19T08:04:18.338Z,8.53
2023-02-19T08:06:44.925Z,8.60
2023-02-19T08:09:11.410Z,8.63
2023-02-19T08:11:40.215Z,8.66
2023-02-19T08:14:06.794Z,8.66
2023-02-19T08:16:42.896Z,8.71
2023-02-19T08:19:09.833Z,8.90
2023-02-19T08:21:36.357Z,9.11
2023-02-19T08:24:02.739Z,9.14
2023-02-19T08:26:29.189Z,9.26
2023-02-19T08:28:55.747Z,9.30
2023-02-19T08:31:22.182Z,9.37
2023-02-19T08:33:51.024Z,9.44
2023-02-19T08:36:17.449Z,9.40
2023-02-19T08:38:43.952Z,9.59
2023-02-19T08:41:10.711Z,9.71
2023-02-19T08:43:37.395Z,9.80
2023-02-19T08:46:03.968Z,9.84
2023-02-19T08:48:30.385Z,9.88
2023-02-19T08:50:56.710Z,9.81
2023-02-19T08:53:23.123Z,9.84
2023-02-19T08:55:49.509Z,9.95
2023-02-19T08:58:15.921Z,10.00
2023-02-19T09:00:42.324Z,10.05
2023-02-19T09:03:08.664Z,10.16
2023-02-19T09:05:35.039Z,10.35
2023-02-19T09:08:01.428Z,10.50
2023-02-19T09:10:28.827Z,10.55
2023-02-19T09:12:55.409Z,10.52
2023-02-19T09:15:21.804Z,10.65
2023-02-19T09:17:48.172Z,10.66
2023-02-19T09:20:14.791Z,10.54
2023-02-19T09:22:41.169Z,10.68
2023-02-19T09:25:07.931Z,10.51
2023-02-19T09:27:36.751Z,10.59
2023-02-19T09:30:15.119Z,10.60
2023-02-19T09:48:56.079Z,11.34
2023-02-19T09:51:22.418Z,11.50
2023-02-19T09:53:50.826Z,11.59
2023-02-19T09:56:17.260Z,11.40
2023-02-19T10:01:25.914Z,11.23
2023-02-19T10:03:53.551Z,11.28
2023-02-19T10:06:19.940Z,11.59
2023-02-19T10:08:46.359Z,11.50
2023-02-19T10:11:12.997Z,11.45
2023-02-19T10:13:39.568Z,11.79
2023-02-19T10:16:06.027Z,11.85
2023-02-19T10:18:32.569Z,11.69
2023-02-19T10:20:58.940Z,11.72
2023-02-19T10:23:25.356Z,11.94
2023-02-19T10:25:51.748Z,12.12
2023-02-19T10:30:44.550Z,12.22
2023-02-19T10:33:10.942Z,12.14
2023-02-19T10:35:37.523Z,12.05
2023-02-19T10:38:03.875Z,11.81
2023-02-19T10:40:30.264Z,11.72
2023-02-19T10:42:56.610Z,12.04
2023-02-19T10:45:24.006Z,12.12
2023-02-19T10:47:50.464Z,12.38
2023-02-19T10:50:18.905Z,12.73
2023-02-19T10:52:45.269Z,12.94
2023-02-19T10:55:11.622Z,12.56
2023-02-19T10:57:37.985Z,12.67
2023-02-19T11:00:04.472Z,12.90
2023-02-19T11:02:30.823Z,13.06
2023-02-19T11:04:57.199Z,13.17
2023-02-19T11:07:23.545Z,13.28
2023-02-19T11:09:50.015Z,13.37
2023-02-19T11:12:16.388Z,13.58
2023-02-19T11:14:42.781Z,13.48
2023-02-19T11:17:09.341Z,13.78
2023-02-19T11:19:36.141Z,13.80
2023-02-19T11:22:02.489Z,13.84
2023-02-19T11:24:28.866Z,13.74
2023-02-19T11:26:55.233Z,13.39
2023-02-19T11:29:24.423Z,13.45
2023-02-19T11:31:50.889Z,13.24
2023-02-19T11:34:19.381Z,13.24
2023-02-19T11:36:47.057Z,13.23
2023-02-19T11:39:13.442Z,13.22
2023-02-19T11:41:39.788Z,13.05
2023-02-19T11:44:06.337Z,13.18
2023-02-19T11:46:32.687Z,13.31
2023-02-19T11:48:59.112Z,13.14
2023-02-19T11:51:25.560Z,13.35
2023-02-19T11:53:51.891Z,13.65
2023-02-19T11:56:18.357Z,13.28
2023-02-19T11:58:44.703Z,13.28
2023-02-19T12:01:11.287Z,13.05
2023-02-19T12:03:38.391Z,12.94
2023-02-19T12:06:04.788Z,13.28
2023-02-19T12:08:32.365Z,13.48
2023-02-19T12:10:59.336Z,13.18
2023-02-19T12:13:25.725Z,12.94
2023-02-19T12:15:52.344Z,13.16
2023-02-19T12:18:18.695Z,13.24
2023-02-19T12:20:46.063Z,13.40
2023-02-19T12:23:12.546Z,13.59
2023-02-19T12:25:38.936Z,13.53
2023-02-19T12:28:05.317Z,13.52
2023-02-19T12:30:31.982Z,13.54
2023-02-19T12:32:58.472Z,13.20
2023-02-19T12:35:24.870Z,13.09
2023-02-19T12:37:52.458Z,13.01
2023-02-19T12:40:19.018Z,13.18
2023-02-19T12:42:45.394Z,13.37
2023-02-19T12:45:14.161Z,13.49
2023-02-19T12:47:40.511Z,13.57
2023-02-19T12:50:07.404Z,13.64
2023-02-19T12:52:37.819Z,13.83
2023-02-19T12:55:04.191Z,14.12
2023-02-19T12:57:30.533Z,14.28
2023-02-19T12:59:56.922Z,14.59
2023-02-19T13:02:23.409Z,14.60
2023-02-19T13:04:50.368Z,14.67
2023-02-19T13:07:16.802Z,14.67
2023-02-19T13:09:43.185Z,14.67
2023-02-19T13:12:09.529Z,14.84
2023-02-19T13:14:35.943Z,14.62
2023-02-19T13:17:02.987Z,14.76
2023-02-19T13:19:29.525Z,15.01
2023-02-19T13:21:55.869Z,15.14
2023-02-19T13:24:24.395Z,15.31
2023-02-19T13:26:51.950Z,15.18
2023-02-19T13:29:18.565Z,15.17
2023-02-19T13:31:45.072Z,15.28
2023-02-19T13:34:11.529Z,15.44
2023-02-19T13:36:39.095Z,15.24
2023-02-19T13:39:06.518Z,15.37
2023-02-19T13:41:35.166Z,15.33
2023-02-19T13:44:01.565Z,15.26
2023-02-19T13:46:28.078Z,14.97
2023-02-19T13:48:54.669Z,14.93
2023-02-19T13:51:21.124Z,15.12
2023-02-19T13:53:47.833Z,15.14
2023-02-19T13:56:14.218Z,14.92
2023-02-19T13:58:40.920Z,14.99
2023-02-19T14:01:07.538Z,15.11
2023-02-19T14:03:33.899Z,14.89
2023-02-19T14:06:00.329Z,14.71
2023-02-19T14:08:26.787Z,14.67
2023-02-19T14:10:53.173Z,14.56
2023-02-19T14:13:19.515Z,14.45
2023-02-19T14:15:45.961Z,14.42
2023-02-19T14:18:14.874Z,14.33
2023-02-19T14:20:43.565Z,14.03
2023-02-19T14:23:11.042Z,13.79
2023-02-19T14:25:37.517Z,13.78
2023-02-19T14:28:04.069Z,13.85
2023-02-19T14:30:32.174Z,13.98
2023-02-19T14:33:09.800Z,13.81
2023-02-19T14:35:36.837Z,13.83
2023-02-19T14:38:03.459Z,13.71
2023-02-19T14:40:29.924Z,13.84
2023-02-19T14:42:57.394Z,14.10
2023-02-19T14:45:24.080Z,14.21
2023-02-19T14:47:50.626Z,14.27
2023-02-19T14:50:17.004Z,13.96
2023-02-19T14:52:43.432Z,14.12
2023-02-19T14:55:09.895Z,14.16
2023-02-19T14:57:36.609Z,14.22
2023-02-19T15:00:04.622Z,14.29
2023-02-19T15:02:31.102Z,14.32
2023-02-19T15:04:57.510Z,14.02
2023-02-19T15:07:25.088Z,14.10
2023-02-19T15:09:51.509Z,14.03
2023-02-19T15:12:20.456Z,13.88
2023-02-19T15:14:49.189Z,14.00
2023-02-19T15:17:15.560Z,13.82
2023-02-19T15:19:42.011Z,13.96
2023-02-19T15:22:08.488Z,13.94
2023-02-19T15:24:34.941Z,13.91
2023-02-19T15:27:01.387Z,14.01
2023-02-19T15:29:27.789Z,13.54
2023-02-19T15:31:54.367Z,13.17
2023-02-19T15:34:20.903Z,12.98
2023-02-19T15:36:47.454Z,12.96
2023-02-19T15:39:14.186Z,12.84
2023-02-19T15:41:40.604Z,12.61
2023-02-19T15:44:07.044Z,12.30
2023-02-19T15:46:33.441Z,12.50
2023-02-19T15:48:59.801Z,12.59
2023-02-19T15:51:27.444Z,12.59
2023-02-19T15:53:53.840Z,12.47
2023-02-19T15:56:20.256Z,12.35
2023-02-19T15:58:47.213Z,12.20
2023-02-19T16:01:14.020Z,12.24
2023-02-19T16:03:40.511Z,12.38
2023-02-19T16:06:07.226Z,12.20
2023-02-19T16:08:33.718Z,12.41
2023-02-19T16:11:00.106Z,12.31
2023-02-19T16:13:26.425Z,12.22
2023-02-19T16:15:52.921Z,12.07
2023-02-19T16:18:19.362Z,12.04
2023-02-19T16:20:45.735Z,11.96
2023-02-19T16:23:12.373Z,11.79
2023-02-19T16:25:40.979Z,11.58
2023-02-19T16:28:09.302Z,11.46
2023-02-19T16:30:35.931Z,11.40
2023-02-19T16:33:02.504Z,11.06
2023-02-19T16:35:29.181Z,10.91
2023-02-19T16:37:55.542Z,10.81
2023-02-19T16:40:24.718Z,10.56
2023-02-19T16:42:54.482Z,10.51
2023-02-19T16:45:20.926Z,10.59
2023-02-19T16:47:51.330Z,10.62
2023-02-19T16:50:18.140Z,10.71
2023-02-19T16:52:44.602Z,10.80
2023-02-19T16:55:10.954Z,10.86
2023-02-19T16:57:37.317Z,10.89
2023-02-19T17:00:04.145Z,10.86
2023-02-19T17:02:30.503Z,10.83
2023-02-19T17:04:56.892Z,10.77
2023-02-19T17:07:23.556Z,10.73
2023-02-19T17:09:50.032Z,10.73
2023-02-19T17:12:16.403Z,10.69
2023-02-19T17:14:43.013Z,10.68
2023-02-19T17:17:09.373Z,10.69
2023-02-19T17:19:36.172Z,10.59
2023-02-19T17:22:02.562Z,10.49
2023-02-19T17:24:28.970Z,10.42
2023-02-19T17:26:55.438Z,10.37
2023-02-19T17:29:22.082Z,10.27
2023-02-19T17:31:48.571Z,10.19
2023-02-19T17:34:14.967Z,10.07
2023-02-19T17:36:41.328Z,10.05
2023-02-19T17:39:08.019Z,9.99
2023-02-19T17:41:34.619Z,9.93
2023-02-19T17:44:01.093Z,9.86
2023-02-19T17:46:27.489Z,9.82
2023-02-19T17:48:54.196Z,9.75
2023-02-19T17:51:20.637Z,9.71
2023-02-19T17:53:48.179Z,9.58
2023-02-19T17:56:14.725Z,9.51
2023-02-19T17:58:41.289Z,9.39
2023-02-19T18:01:12.375Z,9.12
2023-02-19T18:03:39.246Z,9.05
2023-02-19T18:06:06.220Z,8.98
2023-02-19T18:08:32.947Z,8.93
2023-02-19T18:11:01.008Z,9.00
2023-02-19T18:13:30.593Z,8.92
2023-02-19T18:15:56.986Z,8.85
2023-02-19T18:18:25.792Z,8.79
2023-02-19T18:20:52.174Z,8.75
2023-02-19T18:23:19.565Z,8.70
2023-02-19T18:25:46.206Z,8.60
2023-02-19T18:28:13.906Z,8.43
2023-02-19T18:30:40.672Z,8.43
2023-02-19T18:33:07.366Z,8.35
2023-02-19T18:35:34.990Z,8.27
2023-02-19T18:38:01.633Z,8.15
2023-02-19T18:40:28.175Z,8.04
2023-02-19T18:42:54.693Z,8.01
2023-02-19T18:45:22.016Z,8.03
2023-02-19T18:47:48.465Z,7.96
2023-02-19T18:50:14.819Z,7.97
2023-02-19T18:52:41.607Z,7.95
2023-02-19T18:55:08.175Z,7.90
2023-02-19T18:57:34.778Z,7.85
2023-02-19T19:00:01.340Z,7.77
2023-02-19T19:02:33.752Z,7.74
2023-02-19T19:05:06.045Z,7.62
2023-02-19T19:07:32.400Z,7.53
2023-02-19T19:09:58.736Z,7.43
2023-02-19T19:12:25.110Z,7.29
2023-02-19T19:14:51.827Z,7.26
2023-02-19T19:17:18.175Z,7.23
2023-02-19T19:19:45.551Z,7.16
2023-02-19T19:22:13.157Z,7.08
2023-02-19T19:24:39.587Z,7.01
2023-02-19T19:27:07.979Z,6.98
2023-02-19T19:29:34.437Z,6.97
2023-02-19T19:32:00.938Z,6.96
2023-02-19T19:34:27.526Z,6.95
2023-02-19T19:36:53.868Z,6.90
2023-02-19T19:39:20.230Z,6.77
2023-02-19T19:41:46.575Z,6.65
2023-02-19T19:44:13.187Z,6.62
2023-02-19T19:46:39.616Z,6.56
2023-02-19T19:49:06.043Z,6.54
2023-02-19T19:51:32.667Z,6.53
2023-02-19T19:53:59.079Z,6.53
2023-02-19T19:56:27.842Z,6.52
2023-02-19T19:58:58.552Z,6.53
2023-02-19T20:01:24.877Z,6.49
2023-02-19T20:03:53.616Z,6.43
2023-02-19T20:06:20.003Z,6.34
2023-02-19T20:08:46.351Z,6.28
2023-02-19T20:11:12.937Z,6.18
2023-02-19T20:13:39.378Z,6.14
2023-02-19T20:16:05.765Z,6.09
2023-02-19T20:18:32.276Z,5.97
2023-02-19T20:20:58.627Z,5.84
2023-02-19T20:23:27.129Z,5.75
2023-02-19T20:25:53.769Z,5.70
2023-02-19T20:28:20.226Z,5.72
2023-02-19T20:30:47.089Z,5.61
2023-02-19T20:33:20.889Z,5.52
2023-02-19T20:35:47.297Z,5.41
2023-02-19T20:38:13.644Z,5.41
2023-02-19T20:40:44.220Z,5.39
2023-02-19T20:43:10.823Z,5.42
2023-02-19T20:45:37.229Z,5.42
2023-02-19T20:48:04.720Z,5.47
2023-02-19T20:50:32.042Z,5.47
2023-02-19T20:52:58.424Z,5.39
2023-02-19T20:55:25.222Z,5.38
2023-02-19T20:57:51.621Z,5.37
2023-02-19T21:00:18.054Z,5.39
2023-02-19T21:02:46.512Z,5.41
2023-02-19T21:05:12.925Z,5.45
2023-02-19T21:07:40.328Z,5.44
2023-02-19T21:10:06.827Z,5.43
2023-02-19T21:12:35.223Z,5.43
2023-02-19T21:15:01.564Z,5.42
2023-02-19T21:17:29.077Z,5.32
2023-02-19T21:19:55.480Z,5.24
2023-02-19T21:22:22.313Z,5.08
2023-02-19T21:24:51.251Z,4.87
2023-02-19T21:27:17.651Z,4.67
2023-02-19T21:29:44.068Z,4.62
2023-02-19T21:32:12.941Z,4.60
2023-02-19T21:34:39.533Z,4.53
2023-02-19T21:37:06.448Z,4.46
2023-02-19T21:39:32.795Z,4.38
2023-02-19T21:41:59.156Z,4.36
2023-02-19T21:44:27.790Z,4.39
2023-02-19T21:46:54.244Z,4.40
2023-02-19T21:49:20.659Z,4.41
2023-02-19T21:51:47.124Z,4.39
2023-02-19T21:54:13.493Z,4.38
2023-02-19T21:56:39.864Z,4.40
2023-02-19T21:59:06.246Z,4.40
2023-02-19T22:01:32.627Z,4.41
2023-02-19T22:03:59.440Z,4.40
2023-02-19T22:06:28.623Z,4.36
2023-02-19T22:08:57.673Z,4.34
2023-02-19T22:11:24.246Z,4.32
2023-02-19T22:13:51.704Z,4.29
2023-02-19T22:16:18.373Z,4.19
2023-02-19T22:18:44.770Z,4.13
2023-02-19T22:21:11.414Z,4.02
2023-02-19T22:23:37.785Z,3.93
2023-02-19T22:26:04.208Z,3.82
2023-02-19T22:28:30.667Z,3.75
2023-02-19T22:30:57.263Z,3.67
2023-02-19T22:33:23.602Z,3.63
2023-02-19T22:35:50.095Z,3.58
2023-02-19T22:38:16.482Z,3.52
2023-02-19T22:40:44.098Z,3.55
2023-02-19T22:43:10.437Z,3.57
2023-02-19T22:45:36.953Z,3.59
2023-02-19T22:48:03.747Z,3.61
2023-02-19T22:50:32.405Z,3.65
2023-02-19T22:52:58.759Z,3.56
2023-02-19T22:55:25.138Z,3.45
2023-02-19T22:57:51.626Z,3.43
2023-02-19T23:00:18.264Z,3.30
2023-02-19T23:02:44.720Z,3.24
2023-02-19T23:05:11.048Z,3.14
2023-02-19T23:07:37.399Z,3.20
2023-02-19T23:10:03.734Z,3.28
2023-02-19T23:12:31.043Z,3.31
2023-02-19T23:14:57.414Z,3.32
2023-02-19T23:17:23.764Z,3.30
2023-02-19T23:19:50.111Z,3.24
2023-02-19T23:22:16.488Z,3.18
2023-02-19T23:24:42.814Z,3.11
2023-02-19T23:27:09.524Z,2.96
2023-02-19T23:29:36.300Z,2.95
2023-02-19T23:32:02.674Z,2.98
2023-02-19T23:34:29.096Z,3.02
2023-02-19T23:36:55.481Z,2.97
2023-02-19T23:39:21.844Z,2.95
2023-02-19T23:41:55.558Z,2.98
2023-02-19T23:44:21.972Z,3.00
2023-02-19T23:46:48.367Z,3.02
2023-02-19T23:49:14.754Z,3.02
2023-02-19T23:51:41.142Z,3.03
2023-02-19T23:54:07.491Z,3.04
2023-02-19T23:56:34.062Z,3.05
2023-02-19T23:59:00.430Z,3.02
